Hovedside
METAR-TAF:

METAR-TAF

Lufthavner :

Kunming Changshui internasjonale lufthavn

Kunming, Kina

breddegrad: 25-01N, lengdegrad: 102-41E, høyde over havet: 1892 m

Gjeldene værobservasjon

Denne rapporten ble laget for 1 time og 6 minutter siden, klokken 19:00 UTC
Vind 4 kt fra Sør-sørvest
Temperatur 18°C
Luftfuktighet 100%
Trykk 1018 hPa
Sikt 10 km eller mer
Få skyer i en høyde av 2300 ft, Tårnskyer (cumulus).
Spredte skyer i en høyde av 2300 ft
Overskyet i en høyde av 4600 ft

METAR: ZPPP 131900Z 21002MPS 9999 FEW023TCU SCT023 OVC046 18/18 Q1018 NOSIG

Tid: 04:06 (20:06 UTC)

Varsel

Denne rapporten ble laget for 5 timer og 1 minutter siden, klokken 15:05 UTC
Varsel gyldig fra 13. klokken 18 UTC til 14. klokken 18 UTC
Vind 8 kt fra Sørvest
Sikt: 6000 m
Spredte skyer i en høyde av 400 ft
Spredte skyer i en høyde av 2000 ft
Brutte skyer i en høyde av 4000 ft

TAF: ZPPP 131505Z 1318/1418 22004MPS 6000 SCT004 SCT020 BKN040 TX23/1408Z TN16/1323Z

Værobservasjoner og værvarsel for over 4000 flyplasser (METAR- og TAF-rapporter).

Tilgjengelige stasjoner er representert av de røde og gule prikkene på kartet.

Hold musepekeren over prikken for å se navnet på stasjonen.

Klikk så for å se værobservasjoner og -varsler.

For å forandre kartet kan du klikke på den grønne knappen med svart kryss for å zoome inn, på den grønne knappen med strek for å zoome ut, eller på de grønne pilene for å se tilstøtende kart.


METAR-TAF: